createdAt,value
2017-10-22T00:00:01.562Z,12.00
2017-10-22T00:02:29.065Z,11.98
2017-10-22T00:04:56.561Z,11.94
2017-10-22T00:07:24.237Z,11.92
2017-10-22T00:09:51.801Z,11.95
2017-10-22T00:12:19.293Z,11.98
2017-10-22T00:14:46.831Z,11.99
2017-10-22T00:17:14.326Z,12.03
2017-10-22T00:19:41.833Z,12.07
2017-10-22T00:22:09.350Z,12.04
2017-10-22T00:24:36.887Z,12.04
2017-10-22T00:27:04.405Z,12.10
2017-10-22T00:29:31.912Z,12.04
2017-10-22T00:31:59.437Z,11.98
2017-10-22T00:34:26.975Z,11.96
2017-10-22T00:36:54.468Z,11.94
2017-10-22T00:39:21.966Z,11.94
2017-10-22T00:41:49.503Z,11.94
2017-10-22T00:44:16.997Z,11.93
2017-10-22T00:46:44.495Z,11.87
2017-10-22T00:49:12.052Z,11.81
2017-10-22T00:51:39.555Z,11.82
2017-10-22T00:54:07.053Z,11.82
2017-10-22T00:56:34.597Z,11.87
2017-10-22T00:59:02.173Z,11.87
2017-10-22T01:01:29.667Z,11.89
2017-10-22T01:03:57.400Z,11.90
2017-10-22T01:06:24.947Z,11.92
2017-10-22T01:08:52.448Z,11.96
2017-10-22T01:11:19.979Z,11.96
2017-10-22T01:13:47.515Z,11.91
2017-10-22T01:16:15.099Z,11.90
2017-10-22T01:18:42.592Z,11.97
2017-10-22T01:21:10.094Z,12.01
2017-10-22T01:23:37.628Z,11.98
2017-10-22T01:26:05.131Z,11.95
2017-10-22T01:28:32.624Z,11.95
2017-10-22T01:31:00.139Z,11.94
2017-10-22T01:33:27.688Z,11.93
2017-10-22T01:35:55.355Z,11.94
2017-10-22T01:38:22.915Z,12.01
2017-10-22T01:40:50.476Z,12.12
2017-10-22T01:43:18.032Z,12.08
2017-10-22T01:45:45.529Z,12.04
2017-10-22T01:48:13.020Z,12.00
2017-10-22T01:50:40.544Z,12.03
2017-10-22T01:53:08.130Z,12.10
2017-10-22T01:55:35.639Z,12.15
2017-10-22T01:58:03.171Z,12.19
2017-10-22T02:00:30.667Z,12.20
2017-10-22T02:02:58.192Z,12.17
2017-10-22T02:05:25.720Z,12.24
2017-10-22T02:07:53.219Z,12.28
2017-10-22T02:10:20.714Z,12.23
2017-10-22T02:12:48.227Z,12.19
2017-10-22T02:15:15.717Z,12.16
2017-10-22T02:17:43.265Z,12.14
2017-10-22T02:20:10.763Z,12.14
2017-10-22T02:22:38.257Z,12.11
2017-10-22T02:25:05.925Z,12.11
2017-10-22T02:27:33.415Z,12.14
2017-10-22T02:30:00.948Z,12.15
2017-10-22T02:32:28.499Z,12.20
2017-10-22T02:34:56.063Z,12.21
2017-10-22T02:37:23.557Z,12.23
2017-10-22T02:39:51.173Z,12.24
2017-10-22T02:42:18.672Z,12.27
2017-10-22T02:44:46.169Z,12.23
2017-10-22T02:47:13.704Z,12.25
2017-10-22T02:49:41.217Z,12.28
2017-10-22T02:52:08.713Z,12.30
2017-10-22T02:54:36.243Z,12.31
2017-10-22T02:57:03.747Z,12.28
2017-10-22T02:59:31.252Z,12.22
2017-10-22T03:01:58.818Z,12.20
2017-10-22T03:04:26.312Z,12.22
2017-10-22T03:06:53.817Z,12.25
2017-10-22T03:09:21.348Z,12.28
2017-10-22T03:11:48.920Z,12.32
2017-10-22T03:14:16.497Z,12.34
2017-10-22T03:16:44.028Z,12.34
2017-10-22T03:19:11.519Z,12.36
2017-10-22T03:21:39.153Z,12.39
2017-10-22T03:24:06.667Z,12.37
2017-10-22T03:26:34.164Z,12.32
2017-10-22T03:29:01.693Z,12.31
2017-10-22T03:31:29.212Z,12.30
2017-10-22T03:33:56.762Z,12.32
2017-10-22T03:36:24.409Z,12.34
2017-10-22T03:38:51.992Z,12.32
2017-10-22T03:43:57.752Z,12.30
2017-10-22T03:46:25.252Z,12.30
2017-10-22T03:48:52.746Z,12.29
2017-10-22T03:51:20.333Z,12.22
2017-10-22T03:53:47.831Z,12.17
2017-10-22T03:56:15.322Z,12.11
2017-10-22T03:58:42.864Z,12.08
2017-10-22T04:01:10.365Z,12.05
2017-10-22T04:03:37.858Z,12.02
2017-10-22T04:06:05.393Z,12.01
2017-10-22T04:08:32.894Z,12.00
2017-10-22T04:11:00.387Z,11.99
2017-10-22T04:13:27.910Z,11.97
2017-10-22T04:15:55.400Z,11.96
2017-10-22T04:18:22.967Z,11.95
2017-10-22T04:20:50.495Z,11.94
2017-10-22T04:23:17.995Z,11.93
2017-10-22T04:25:45.528Z,11.90
2017-10-22T04:28:13.114Z,11.90
2017-10-22T04:30:40.610Z,11.88
2017-10-22T04:33:08.101Z,11.86
2017-10-22T04:35:35.780Z,11.86
2017-10-22T04:38:03.274Z,11.86
2017-10-22T04:40:30.773Z,11.84
2017-10-22T04:42:58.463Z,11.84
2017-10-22T04:45:25.964Z,11.85
2017-10-22T04:47:53.459Z,11.88
2017-10-22T04:50:21.097Z,11.91
2017-10-22T04:52:48.591Z,11.93
2017-10-22T04:55:16.083Z,11.94
2017-10-22T04:57:43.715Z,11.94
2017-10-22T05:02:45.105Z,11.94
2017-10-22T05:05:12.656Z,11.94
2017-10-22T05:07:40.326Z,11.94
2017-10-22T05:10:07.968Z,11.96
2017-10-22T05:12:35.467Z,11.99
2017-10-22T05:15:02.976Z,11.94
2017-10-22T05:17:30.539Z,11.92
2017-10-22T05:19:58.038Z,11.93
2017-10-22T05:22:25.553Z,11.93
2017-10-22T05:24:53.080Z,11.95
2017-10-22T05:27:20.661Z,11.94
2017-10-22T05:29:48.229Z,11.90
2017-10-22T05:32:15.723Z,11.88
2017-10-22T05:34:43.244Z,11.87
2017-10-22T05:37:10.748Z,11.88
2017-10-22T05:39:38.244Z,11.91
2017-10-22T05:42:05.828Z,11.94
2017-10-22T05:44:33.320Z,11.96
2017-10-22T05:47:00.844Z,11.96
2017-10-22T05:49:28.371Z,11.97
2017-10-22T05:51:55.966Z,11.97
2017-10-22T05:54:23.525Z,11.95
2017-10-22T05:56:51.011Z,11.91
2017-10-22T05:59:18.551Z,11.89
2017-10-22T06:01:46.095Z,11.88
2017-10-22T06:04:13.596Z,11.87
2017-10-22T06:06:41.211Z,11.87
2017-10-22T06:09:08.704Z,11.87
2017-10-22T06:11:36.234Z,11.84
2017-10-22T06:14:03.753Z,11.82
2017-10-22T06:16:31.367Z,11.80
2017-10-22T06:18:58.850Z,11.78
2017-10-22T06:21:26.574Z,11.76
2017-10-22T06:23:54.062Z,11.73
2017-10-22T06:26:21.560Z,11.71
2017-10-22T06:28:49.083Z,11.70
2017-10-22T06:31:16.609Z,11.70
2017-10-22T06:33:44.120Z,11.69
2017-10-22T06:36:11.743Z,11.69
2017-10-22T06:38:39.232Z,11.68
2017-10-22T06:41:06.733Z,11.67
2017-10-22T06:43:34.269Z,11.71
2017-10-22T06:46:01.780Z,11.75
2017-10-22T06:48:29.280Z,11.79
2017-10-22T06:50:56.785Z,11.82
2017-10-22T06:53:24.279Z,11.86
2017-10-22T06:55:51.811Z,11.84
2017-10-22T06:58:19.313Z,11.84
2017-10-22T07:00:46.902Z,11.82
2017-10-22T07:03:14.414Z,11.76
2017-10-22T07:05:41.905Z,11.69
2017-10-22T07:08:09.441Z,11.70
2017-10-22T07:10:37.034Z,11.76
2017-10-22T07:13:04.602Z,11.78
2017-10-22T07:15:32.124Z,11.80
2017-10-22T07:17:59.619Z,11.82
2017-10-22T07:20:27.113Z,11.82
2017-10-22T07:22:54.632Z,11.83
2017-10-22T07:25:22.202Z,11.86
2017-10-22T07:27:49.752Z,11.89
2017-10-22T07:30:17.296Z,11.93
2017-10-22T07:32:44.785Z,11.98
2017-10-22T07:35:12.274Z,11.98
2017-10-22T07:37:39.801Z,12.00
2017-10-22T07:40:07.336Z,12.01
2017-10-22T07:42:34.897Z,12.06
2017-10-22T07:45:02.423Z,12.13
2017-10-22T07:47:29.912Z,12.23
2017-10-22T07:49:57.403Z,12.31
2017-10-22T07:52:25.140Z,12.34
2017-10-22T07:54:52.628Z,12.38
2017-10-22T07:57:20.154Z,12.48
2017-10-22T07:59:47.673Z,12.42
2017-10-22T08:02:15.151Z,12.28
2017-10-22T08:04:42.647Z,12.17
2017-10-22T08:07:10.158Z,12.11
2017-10-22T08:09:37.668Z,12.08
2017-10-22T08:12:05.160Z,12.16
2017-10-22T08:14:32.683Z,12.23
2017-10-22T08:17:00.183Z,12.26
2017-10-22T08:19:27.680Z,12.25
2017-10-22T08:21:55.217Z,12.32
2017-10-22T08:24:22.713Z,12.40
2017-10-22T08:26:50.256Z,12.48
2017-10-22T08:29:17.776Z,12.48
2017-10-22T08:31:45.373Z,12.50
2017-10-22T08:34:12.868Z,12.53
2017-10-22T08:36:40.392Z,12.58
2017-10-22T08:39:07.966Z,12.68
2017-10-22T08:41:35.470Z,12.70
2017-10-22T08:44:03.067Z,12.64
2017-10-22T08:46:30.627Z,12.75
2017-10-22T08:48:58.189Z,12.77
2017-10-22T08:51:25.727Z,12.61
2017-10-22T08:53:53.216Z,12.54
2017-10-22T08:56:20.700Z,12.58
2017-10-22T08:58:48.422Z,12.66
2017-10-22T09:01:15.916Z,12.61
2017-10-22T09:03:43.407Z,12.69
2017-10-22T09:06:10.938Z,12.98
2017-10-22T09:11:12.255Z,13.69
2017-10-22T09:13:39.743Z,13.52
2017-10-22T09:16:07.236Z,13.33
2017-10-22T09:18:34.756Z,13.28
2017-10-22T09:21:02.260Z,13.31
2017-10-22T09:23:29.759Z,13.33
2017-10-22T09:25:57.297Z,13.27
2017-10-22T09:28:24.780Z,13.21
2017-10-22T09:30:52.279Z,13.15
2017-10-22T09:33:19.903Z,13.20
2017-10-22T09:35:47.398Z,13.43
2017-10-22T09:38:14.931Z,13.65
2017-10-22T09:40:42.484Z,13.87
2017-10-22T09:43:09.976Z,13.81
2017-10-22T09:45:37.598Z,13.80
2017-10-22T09:48:05.084Z,13.80
2017-10-22T09:50:32.582Z,13.86
2017-10-22T09:53:00.104Z,13.89
2017-10-22T09:55:27.589Z,13.91
2017-10-22T09:57:55.171Z,13.95
2017-10-22T10:00:22.713Z,14.02
2017-10-22T10:02:50.295Z,14.09
2017-10-22T10:05:17.782Z,14.12
2017-10-22T10:07:45.316Z,14.08
2017-10-22T10:10:12.824Z,14.09
2017-10-22T10:12:40.396Z,14.23
2017-10-22T10:15:07.961Z,14.51
2017-10-22T10:17:35.443Z,14.74
2017-10-22T10:20:02.970Z,14.80
2017-10-22T10:22:30.564Z,14.87
2017-10-22T10:24:58.043Z,14.71
2017-10-22T10:27:25.567Z,14.68
2017-10-22T10:29:53.055Z,14.74
2017-10-22T10:32:20.543Z,14.60
2017-10-22T10:34:48.072Z,14.38
2017-10-22T10:37:15.556Z,14.38
2017-10-22T10:39:43.047Z,14.28
2017-10-22T10:42:10.636Z,14.28
2017-10-22T10:44:38.125Z,14.26
2017-10-22T10:47:05.615Z,14.26
2017-10-22T10:49:33.156Z,14.53
2017-10-22T10:52:00.648Z,15.00
2017-10-22T10:54:28.157Z,15.15
2017-10-22T10:56:55.681Z,15.38
2017-10-22T10:59:23.252Z,15.42
2017-10-22T11:01:50.780Z,15.52
2017-10-22T11:04:18.362Z,15.53
2017-10-22T11:06:45.865Z,15.33
2017-10-22T11:09:13.404Z,15.20
2017-10-22T11:11:41.645Z,15.20
2017-10-22T11:14:10.038Z,15.43
2017-10-22T11:16:37.587Z,15.61
2017-10-22T11:19:05.120Z,15.65
2017-10-22T11:21:32.613Z,15.61
2017-10-22T11:24:00.137Z,15.41
2017-10-22T11:26:27.680Z,15.06
2017-10-22T11:28:55.172Z,14.83
2017-10-22T11:31:22.749Z,14.71
2017-10-22T11:33:50.401Z,14.83
2017-10-22T11:36:17.940Z,14.96
2017-10-22T11:38:45.623Z,15.45
2017-10-22T11:41:13.118Z,15.91
2017-10-22T11:43:40.624Z,15.78
2017-10-22T11:46:08.295Z,15.94
2017-10-22T11:48:35.787Z,15.93
2017-10-22T11:51:03.278Z,16.08
2017-10-22T11:53:30.796Z,16.04
2017-10-22T11:55:58.330Z,16.03
2017-10-22T11:58:25.831Z,16.01
2017-10-22T12:00:53.444Z,15.89
2017-10-22T12:03:21.006Z,15.91
2017-10-22T12:05:48.484Z,15.92
2017-10-22T12:08:16.016Z,15.91
2017-10-22T12:10:43.600Z,15.85
2017-10-22T12:13:11.081Z,15.81
2017-10-22T12:15:38.597Z,15.82
2017-10-22T12:18:06.152Z,15.78
2017-10-22T12:20:33.638Z,15.70
2017-10-22T12:23:01.155Z,15.58
2017-10-22T12:25:28.728Z,15.55
2017-10-22T12:27:56.225Z,15.54
2017-10-22T12:30:23.740Z,15.54
2017-10-22T12:32:51.222Z,15.40
2017-10-22T12:35:18.765Z,15.43
2017-10-22T12:37:46.256Z,15.74
2017-10-22T12:40:13.749Z,15.70
2017-10-22T12:42:41.286Z,15.64
2017-10-22T12:45:08.782Z,15.38
2017-10-22T12:47:36.273Z,15.48
2017-10-22T12:50:03.795Z,15.67
2017-10-22T12:52:31.288Z,15.69
2017-10-22T12:54:58.832Z,15.53
2017-10-22T12:57:26.483Z,15.60
2017-10-22T12:59:53.989Z,15.66
2017-10-22T13:02:21.474Z,15.55
2017-10-22T13:04:48.983Z,15.67
2017-10-22T13:07:16.460Z,15.85
2017-10-22T13:09:44.082Z,15.97
2017-10-22T13:12:11.582Z,16.25
2017-10-22T13:14:39.102Z,16.33
2017-10-22T13:17:06.782Z,16.37
2017-10-22T13:19:34.284Z,16.25
2017-10-22T13:22:01.891Z,16.12
2017-10-22T13:24:29.428Z,15.68
2017-10-22T13:26:57.017Z,15.35
2017-10-22T13:29:24.503Z,15.05
2017-10-22T13:31:52.036Z,14.90
2017-10-22T13:34:19.569Z,14.89
2017-10-22T13:36:47.061Z,14.85
2017-10-22T13:39:14.595Z,14.82
2017-10-22T13:41:42.088Z,14.82
2017-10-22T13:44:09.625Z,14.76
2017-10-22T13:46:37.131Z,14.64
2017-10-22T13:49:04.623Z,14.56
2017-10-22T13:51:32.160Z,14.37
2017-10-22T13:53:59.748Z,14.30
2017-10-22T13:56:27.236Z,14.22
2017-10-22T13:58:54.781Z,14.15
2017-10-22T14:01:22.273Z,14.05
2017-10-22T14:03:49.777Z,14.11
2017-10-22T14:06:17.283Z,14.12
2017-10-22T14:08:44.769Z,14.07
2017-10-22T14:11:12.302Z,14.00
2017-10-22T14:13:39.791Z,13.97
2017-10-22T14:16:07.286Z,13.94
2017-10-22T14:18:34.817Z,13.89
2017-10-22T14:21:02.311Z,13.79
2017-10-22T14:23:29.796Z,13.72
2017-10-22T14:25:57.330Z,13.67
2017-10-22T14:28:24.814Z,13.70
2017-10-22T14:30:52.335Z,13.68
2017-10-22T14:33:19.822Z,13.66
2017-10-22T14:35:47.308Z,13.64
2017-10-22T14:38:14.827Z,13.67
2017-10-22T14:40:42.308Z,13.61
2017-10-22T14:43:09.820Z,13.63
2017-10-22T14:45:37.365Z,13.59
2017-10-22T14:48:04.891Z,13.56
2017-10-22T14:50:32.501Z,13.52
2017-10-22T14:52:59.993Z,13.44
2017-10-22T14:55:27.517Z,13.34
2017-10-22T14:57:55.017Z,13.26
2017-10-22T15:00:22.644Z,13.19
2017-10-22T15:02:50.134Z,13.15
2017-10-22T15:05:17.625Z,13.14
2017-10-22T15:07:45.210Z,13.09
2017-10-22T15:10:12.737Z,13.08
2017-10-22T15:12:40.224Z,13.07
2017-10-22T15:15:07.717Z,13.06
2017-10-22T15:17:35.243Z,13.04
2017-10-22T15:20:02.788Z,13.00
2017-10-22T15:22:30.308Z,12.99
2017-10-22T15:24:57.905Z,12.97
2017-10-22T15:27:25.403Z,12.95
2017-10-22T15:29:52.887Z,12.96
2017-10-22T15:32:20.404Z,12.93
2017-10-22T15:34:47.891Z,12.87
2017-10-22T15:37:15.415Z,12.82
2017-10-22T15:39:42.903Z,12.85
2017-10-22T15:42:10.408Z,12.83
2017-10-22T15:44:37.985Z,12.76
2017-10-22T15:47:05.477Z,12.73
2017-10-22T15:49:32.979Z,12.69
2017-10-22T15:52:00.501Z,12.67
2017-10-22T15:54:28.104Z,12.64
2017-10-22T15:56:55.591Z,12.64
2017-10-22T15:59:23.243Z,12.60
2017-10-22T16:01:50.731Z,12.54
2017-10-22T16:04:18.220Z,12.54
2017-10-22T16:06:45.760Z,12.55
2017-10-22T16:09:13.252Z,12.54
2017-10-22T16:11:41.428Z,12.51
2017-10-22T16:14:08.961Z,12.47
2017-10-22T16:16:36.458Z,12.44
2017-10-22T16:19:04.008Z,12.38
2017-10-22T16:21:31.527Z,12.41
2017-10-22T16:23:59.141Z,12.35
2017-10-22T16:26:26.635Z,12.32
2017-10-22T16:28:54.183Z,12.33
2017-10-22T16:31:21.679Z,12.30
2017-10-22T16:33:49.181Z,12.30
2017-10-22T16:36:17.639Z,12.32
2017-10-22T16:38:45.127Z,12.33
2017-10-22T16:41:12.665Z,12.32
2017-10-22T16:43:40.209Z,12.28
2017-10-22T16:46:07.697Z,12.23
2017-10-22T16:48:35.221Z,12.20
2017-10-22T16:51:02.712Z,12.15
2017-10-22T16:53:30.216Z,12.12
2017-10-22T16:55:57.744Z,12.05
2017-10-22T16:58:25.223Z,11.97
2017-10-22T17:00:52.711Z,11.87
2017-10-22T17:03:20.269Z,11.80
2017-10-22T17:05:47.762Z,11.85
2017-10-22T17:08:15.250Z,11.87
2017-10-22T17:10:42.778Z,11.86
2017-10-22T17:13:10.328Z,11.89
2017-10-22T17:15:37.814Z,11.87
2017-10-22T17:18:05.347Z,11.83
2017-10-22T17:20:32.832Z,11.81
2017-10-22T17:23:00.321Z,11.73
2017-10-22T17:25:27.843Z,11.69
2017-10-22T17:27:55.324Z,11.72
2017-10-22T17:30:22.854Z,11.75
2017-10-22T17:32:50.344Z,11.75
2017-10-22T17:35:17.832Z,11.75
2017-10-22T17:37:45.477Z,11.75
2017-10-22T17:40:13.064Z,11.78
2017-10-22T17:42:40.561Z,11.74
2017-10-22T17:45:08.100Z,11.70
2017-10-22T17:47:35.590Z,11.65
2017-10-22T17:50:03.079Z,11.64
2017-10-22T17:52:30.594Z,11.60
2017-10-22T17:54:58.088Z,11.54
2017-10-22T17:57:25.657Z,11.45
2017-10-22T17:59:53.252Z,11.41
2017-10-22T18:02:20.734Z,11.43
2017-10-22T18:04:48.249Z,11.39
2017-10-22T18:07:15.737Z,11.37
2017-10-22T18:09:43.269Z,11.34
2017-10-22T18:12:10.815Z,11.27
2017-10-22T18:14:38.304Z,11.19
2017-10-22T18:17:05.829Z,11.14
2017-10-22T18:19:33.360Z,11.12
2017-10-22T18:22:00.848Z,11.12
2017-10-22T18:24:28.346Z,11.19
2017-10-22T18:26:55.869Z,11.21
2017-10-22T18:29:23.393Z,11.19
2017-10-22T18:31:50.983Z,11.22
2017-10-22T18:34:18.471Z,11.25
2017-10-22T18:36:45.997Z,11.27
2017-10-22T18:39:13.536Z,11.31
2017-10-22T18:41:41.604Z,11.36
2017-10-22T18:44:09.100Z,11.35
2017-10-22T18:46:36.752Z,11.35
2017-10-22T18:49:04.239Z,11.34
2017-10-22T18:51:31.735Z,11.35
2017-10-22T18:53:59.262Z,11.34
2017-10-22T18:56:26.784Z,11.32
2017-10-22T18:58:54.271Z,11.27
2017-10-22T19:01:21.813Z,11.29
2017-10-22T19:03:49.312Z,11.34
2017-10-22T19:06:16.933Z,11.34
2017-10-22T19:08:44.453Z,11.34
2017-10-22T19:11:11.936Z,11.37
2017-10-22T19:13:39.457Z,11.36
2017-10-22T19:16:06.966Z,11.36
2017-10-22T19:18:34.456Z,11.39
2017-10-22T19:21:02.057Z,11.40
2017-10-22T19:23:29.622Z,11.34
2017-10-22T19:25:57.136Z,11.29
2017-10-22T19:28:24.633Z,11.28
2017-10-22T19:30:52.152Z,11.30
2017-10-22T19:33:19.658Z,11.29
2017-10-22T19:35:47.136Z,11.29
2017-10-22T19:38:14.656Z,11.24
2017-10-22T19:40:42.216Z,11.26
2017-10-22T19:43:09.801Z,11.27
2017-10-22T19:45:37.306Z,11.23
2017-10-22T19:48:04.909Z,11.21
2017-10-22T19:50:32.391Z,11.24
2017-10-22T19:52:59.881Z,11.23
2017-10-22T19:55:27.414Z,11.22
2017-10-22T19:57:54.905Z,11.16
2017-10-22T20:00:22.405Z,11.17
2017-10-22T20:02:49.962Z,11.20
2017-10-22T20:05:17.445Z,11.18
2017-10-22T20:07:44.948Z,11.15
2017-10-22T20:10:12.549Z,11.14
2017-10-22T20:12:40.079Z,11.04
2017-10-22T20:15:07.652Z,11.04
2017-10-22T20:17:35.203Z,11.05
2017-10-22T20:20:02.774Z,11.06
2017-10-22T20:22:30.431Z,11.05
2017-10-22T20:24:57.917Z,11.06
2017-10-22T20:27:25.412Z,11.07
2017-10-22T20:29:53.212Z,11.07
2017-10-22T20:32:20.696Z,11.09
2017-10-22T20:34:48.183Z,11.09
2017-10-22T20:37:15.733Z,11.06
2017-10-22T20:39:43.223Z,11.09
2017-10-22T20:42:10.821Z,11.09
2017-10-22T20:44:38.363Z,11.05
2017-10-22T20:47:05.885Z,11.06
2017-10-22T20:49:33.499Z,11.02
2017-10-22T20:52:00.984Z,10.96
2017-10-22T20:54:28.700Z,10.97
2017-10-22T20:56:56.260Z,10.94
2017-10-22T20:59:23.748Z,10.97
2017-10-22T21:01:51.287Z,11.02
2017-10-22T21:04:18.805Z,11.02
2017-10-22T21:06:46.296Z,11.01
2017-10-22T21:09:13.775Z,10.95
2017-10-22T21:11:41.308Z,10.98
2017-10-22T21:14:08.875Z,11.02
2017-10-22T21:16:36.425Z,10.98
2017-10-22T21:19:03.952Z,11.01
2017-10-22T21:21:31.437Z,11.04
2017-10-22T21:23:58.923Z,11.01
2017-10-22T21:26:26.449Z,11.00
2017-10-22T21:28:53.946Z,11.01
2017-10-22T21:31:21.431Z,11.03
2017-10-22T21:33:49.057Z,11.06
2017-10-22T21:36:16.542Z,11.05
2017-10-22T21:38:44.027Z,11.04
2017-10-22T21:41:11.613Z,11.06
2017-10-22T21:43:39.104Z,11.05
2017-10-22T21:46:06.588Z,11.05
2017-10-22T21:48:34.138Z,11.05
2017-10-22T21:51:01.636Z,11.05
2017-10-22T21:53:29.129Z,11.05
2017-10-22T21:55:56.682Z,11.09
2017-10-22T21:58:24.216Z,11.13
2017-10-22T22:00:51.787Z,11.14
2017-10-22T22:03:19.359Z,11.16
2017-10-22T22:05:46.853Z,11.20
2017-10-22T22:08:14.661Z,11.24
2017-10-22T22:10:42.153Z,11.26
2017-10-22T22:13:09.650Z,11.24
2017-10-22T22:15:37.154Z,11.20
2017-10-22T22:18:04.696Z,11.23
2017-10-22T22:20:32.256Z,11.19
2017-10-22T22:22:59.749Z,11.16
2017-10-22T22:25:27.245Z,11.16
2017-10-22T22:27:54.819Z,11.14
2017-10-22T22:30:22.323Z,11.12
2017-10-22T22:32:49.808Z,11.13
2017-10-22T22:35:17.322Z,11.10
2017-10-22T22:37:44.807Z,11.03
2017-10-22T22:40:12.325Z,10.94
2017-10-22T22:42:39.880Z,10.84
2017-10-22T22:45:07.369Z,10.79
2017-10-22T22:47:35.101Z,10.73
2017-10-22T22:50:02.596Z,10.70
2017-10-22T22:52:30.084Z,10.71
2017-10-22T22:54:57.611Z,10.76
2017-10-22T22:57:25.135Z,10.78
2017-10-22T22:59:52.628Z,10.80
2017-10-22T23:02:20.163Z,10.81
2017-10-22T23:04:47.715Z,10.81
2017-10-22T23:07:15.208Z,10.82
2017-10-22T23:09:42.716Z,10.82
2017-10-22T23:12:10.286Z,10.83
2017-10-22T23:14:37.781Z,10.83
2017-10-22T23:17:05.300Z,10.87
2017-10-22T23:19:32.791Z,10.90
2017-10-22T23:22:00.279Z,10.93
2017-10-22T23:24:27.885Z,10.96
2017-10-22T23:26:55.388Z,11.00
2017-10-22T23:29:22.885Z,11.03
2017-10-22T23:31:50.423Z,11.06
2017-10-22T23:34:17.916Z,11.08
2017-10-22T23:36:45.404Z,11.11
2017-10-22T23:39:12.923Z,11.09
2017-10-22T23:41:40.721Z,11.12
2017-10-22T23:44:08.211Z,11.09
2017-10-22T23:46:35.723Z,11.10
2017-10-22T23:49:03.216Z,11.10
2017-10-22T23:51:30.836Z,11.11
2017-10-22T23:53:58.327Z,11.15
2017-10-22T23:56:25.812Z,11.11
2017-10-22T23:58:53.346Z,11.14
